Sonic Adventure (DX): Time Rankings

Records: Times | Rings | Scores | Races | Bosses | Freestyle
Leaders: Times | Rings | Scores | Races | Bosses | Freestyle | Overall
Rank Player Percent Points Date
1 Gamepro011 99.6% 19 09-17-16
2 Sonicspeedruner 98.8% 63 09-17-16
3 Dashjump 95.3% 253 09-17-16
4 Jawzun 95.3% 255 09-17-16
5 DarkPolarNight 93.1% 377 09-17-16
6 F-Man 92.1% 428 09-17-16
7 drminus 92.0% 434 09-17-16
8 THC98 91.8% 449 09-17-16
9 ike6252 89.7% 565 09-17-16
10 Avento128bits 89.3% 584 09-17-16
11 francisco 89.0% 599 09-17-16
12 DarkspinesSonic 88.5% 628 09-17-16
13 Marth 88.2% 642 09-17-16
14 ethmar 87.5% 683 09-17-16
15 frankoredstrato 87.1% 703 09-17-16
16 chainchumper 84.2% 862 09-17-16
17 Paragod 84.1% 868 09-17-16
18 HyperSonic7701 83.9% 881 09-17-16
19 TheRealShadnic 82.2% 973 09-17-16
20 xXMegaManXx 80.8% 1048 09-17-16
21 InferSaime 80.8% 1053 09-17-16
22 Stefan 79.2% 1138 09-17-16
23 Redd 78.8% 1160 09-17-16
24 Coolfansonic 78.7% 1165 09-17-16
25 PfoSonic 78.7% 1166 09-17-16
26 bertin 76.8% 1269 09-17-16
27 yoshifan 76.4% 1294 09-17-16
28 Dave Cramer 74.7% 1385 09-17-16
29 RPGnutter 74.3% 1407 09-17-16
30 sonicam 72.7% 1495 09-17-16
31 Cybrax 72.6% 1498 09-17-16
32 Ring Rush 69.9% 1651 09-17-16
33 mike89 69.1% 1694 09-17-16
34 NintenDan 68.9% 1703 09-17-16
35 a_moustache 68.2% 1744 09-17-16
36 SkyLights 65.4% 1898 09-17-16
37 Nimrod 64.4% 1953 09-17-16
38 Combo 63.9% 1976 09-17-16
39 SADXTryHard 62.1% 2074 09-17-16
40 P1 Pause 61.0% 2137 09-17-16
41 Groudon199 59.2% 2235 09-17-16
42 Game_Complete 59.1% 2241 09-17-16
43 AxlThunder 58.7% 2262 09-17-16
44 Shadow Jacky 58.5% 2273 09-17-16
45 VMU Player Banned 57.6% 2326 09-17-16
46 Thorn 57.2% 2343 09-17-16
47 SB737 56.2% 2399 09-17-16
47 The Knuckles Chao 56.2% 2399 09-17-16
49 SadisticMystic 55.8% 2423 09-17-16
50 Chao_Fan 55.7% 2428 09-17-16
51 Parax 55.6% 2431 09-17-16
52 Mastakirby 55.3% 2449 09-17-16
53 LittleBigness 55.0% 2468 09-17-16
54 KinkyCadence 54.9% 2474 09-17-16
55 mauserman 54.7% 2481 09-17-16
56 OmegaDJ 54.6% 2486 09-17-16
57 Psyknux 54.3% 2506 09-17-16
58 Auriman1 54.1% 2518 09-17-16
59 magnum12 53.9% 2529 09-17-16
60 Turbos 53.6% 2544 09-17-16
61 GerbilSoft 53.0% 2573 09-17-16
62 GreatStar 52.8% 2588 09-17-16
63 Webber3000 52.3% 2612 09-17-16
64 Hipertails12 51.4% 2666 09-17-16
65 James_Bertolli 49.2% 2785 09-17-16
66 Cream147 48.8% 2806 09-17-16
67 welldooder64 48.1% 2844 09-17-16
68 Skylace 48.0% 2851 09-17-16
69 Quartz 47.6% 2870 09-17-16
70 Omega Rafael Santos 47.5% 2877 09-17-16
71 Psymar 47.4% 2881 09-17-16
72 Diamond 47.3% 2889 09-17-16
73 SonicWinDX 47.0% 2906 09-17-16
74 teamblackarms 46.4% 2940 09-17-16
75 Andrea Ritsu 45.7% 2975 09-17-16
76 buddychaos0415 45.4% 2990 09-17-16
77 SilverSonic 44.8% 3027 09-17-16
78 SilvertheAlmighty 44.2% 3057 09-17-16
79 WeegeeZV 44.0% 3071 09-17-16
80 itsPersonnal 44.0% 3072 09-17-16
81 metanightmare22 43.5% 3097 09-17-16
82 lordmetalsonic 41.4% 3213 09-17-16
83 Arch 40.9% 3237 09-17-16
84 Termon 40.1% 3284 09-17-16
85 videogamemaster777 40.0% 3287 09-17-16
86 supersonicfan 39.7% 3306 09-17-16
87 Drakodan 39.3% 3330 09-17-16
88 Kanimayo_Jp 38.9% 3349 09-17-16
89 LilZero 38.8% 3354 09-17-16
90 paulie9990 38.7% 3361 09-17-16
91 FuzZerd 38.5% 3371 09-17-16
92 supersonic465 38.4% 3375 09-17-16
93 eggFL 37.9% 3405 09-17-16
94 Don 37.2% 3443 09-17-16
95 danieldude 37.0% 3455 09-17-16
96 Siavash Tazari 36.3% 3491 09-17-16
97 Fr3nZy 35.8% 3518 09-17-16
98 f0rever_zer0 35.4% 3543 09-17-16
99 Cod4Scopes 35.3% 3548 09-17-16
100 Cyan Ryan 34.8% 3574 09-17-16
101 LinksDarkArrows 34.4% 3595 09-17-16
102 Therio 34.3% 3604 09-17-16
103 Austinf 33.9% 3625 09-17-16
104 elecmouse101 33.4% 3650 09-17-16
105 Staf 33.2% 3660 09-17-16
106 MiStEr_ShAoLiN 32.9% 3679 09-17-16
107 Twilisailor 32.5% 3700 09-17-16
108 BrokenArthritis 32.4% 3708 09-17-16
109 videogamer1014 32.2% 3717 09-17-16
110 Xia 31.7% 3745 09-17-16
111 AC-Tygo 31.5% 3756 09-17-16
112 welshmoose05 31.3% 3767 09-17-16
113 OddCook 30.6% 3802 09-17-16
114 The Great Lord Mick 30.3% 3819 09-17-16
115 Mcshuggets 29.8% 3848 09-17-16
116 Aitamen 29.7% 3853 09-17-16
117 Maxinfamily 29.6% 3858 09-17-16
118 Matt_TY 29.5% 3864 09-17-16
119 joecoolgames 29.3% 3876 09-17-16
120 dabestgamer 29.3% 3877 09-17-16
121 SuperBlitzCraig 29.0% 3895 09-17-16
122 N 28.9% 3897 09-17-16
123 imazor017 28.7% 3907 09-17-16
124 Shadowthegreat 27.9% 3955 09-17-16
125 superjupi 27.8% 3960 09-17-16
126 SuperSonic101 27.7% 3961 09-17-16
127 Rolken 27.4% 3982 09-17-16
128 thewaytodawnnn 27.0% 4002 09-17-16
129 Hunters13 26.9% 4005 09-17-16
130 sonamyfan666 26.8% 4013 09-17-16
131 iarebored 26.6% 4026 09-17-16
132 koinu93 26.5% 4027 09-17-16
133 Spinballwizard 26.5% 4031 09-17-16
134 SaviourDC 26.3% 4039 09-17-16
134 SonicKnuckles 26.3% 4039 09-17-16
136 EngiNerd 25.4% 4088 09-17-16
137 adf 25.3% 4097 09-17-16
138 Megaman EXE565 24.6% 4132 09-17-16
139 The T 24.2% 4155 09-17-16
140 Sonic Singularity 23.6% 4186 09-17-16
141 Platformer 23.3% 4203 09-17-16
142 Pokemonmaster888 23.2% 4209 09-17-16
143 SeaWolf 23.2% 4212 09-17-16
144 timpkmn89 23.0% 4222 09-17-16
145 Swift Hobo 22.5% 4248 09-17-16
146 Sondow 22.2% 4264 09-17-16
147 Rickyman48 22.0% 4278 09-17-16
148 KitsuneYamaro 21.6% 4297 09-17-16
149 FoxBoy 21.5% 4304 09-17-16
150 TFEC Headshot 20.9% 4334 09-17-16
151 Jerzia 20.8% 4340 09-17-16
152 Kogen Player Banned 20.7% 4345 09-17-16
153 SonataSpinDash 20.5% 4358 09-17-16
154 Starlight Sable 20.0% 4387 09-17-16
155 IsisDazs 19.5% 4412 09-17-16
156 HyperSonic64 19.5% 4413 09-17-16
157 crazy1993 19.0% 4439 09-17-16
158 andres430 18.9% 4445 09-17-16
159 SonicU260 18.0% 4497 09-17-16
160 SonicAD 17.6% 4519 09-17-16
161 MPit08 17.5% 4521 09-17-16
162 sonicd5 17.2% 4540 09-17-16
163 iSonicKid2K 16.9% 4558 09-17-16
164 dShadow 16.8% 4560 09-17-16
165 Cutiefox 16.2% 4594 09-17-16
166 BigAL49 16.2% 4596 09-17-16
167 Chawkk 16.1% 4601 09-17-16
168 Miles9999 16.1% 4602 09-17-16
169 Powerjohn25 16.0% 4606 09-17-16
170 Monkeh 15.9% 4609 09-17-16
171 DaDude 15.4% 4639 09-17-16
172 Drflash55 15.2% 4651 09-17-16
173 Badlex727 14.9% 4666 09-17-16
174 Bass 14.9% 4667 09-17-16
175 Cruizer 14.6% 4685 09-17-16
176 Destroyer121121 14.5% 4686 09-17-16
177 neaolas 14.5% 4690 09-17-16
177 Yish 14.5% 4690 09-17-16
179 zapp 14.3% 4698 09-17-16
180 superiorsonic 14.2% 4706 09-17-16
180 UninspiredUsername 14.2% 4706 09-17-16
182 gamefreak1292 13.8% 4724 09-17-16
183 Cooljay 13.5% 4744 09-17-16
184 Chaos_Overlord 13.0% 4772 09-17-16
185 Valfore 12.3% 4806 09-17-16
186 GarnetPrincess 12.3% 4810 09-17-16
187 soniccoloursunleashed 11.9% 4828 09-17-16
188 ShinigamiMachine 11.8% 4834 09-17-16
189 Sonicsuperstar1 11.4% 4857 09-17-16
190 booo95 11.1% 4875 09-17-16
191 SirTobbii 10.9% 4884 09-17-16
192 FocusSight64 10.9% 4886 09-17-16
193 Werey 10.9% 4887 09-17-16
194 Mo Player Banned 10.7% 4897 09-17-16
195 sonicspeed 10.6% 4903 09-17-16
196 Venick409 9.7% 4952 09-17-16
197 nman36 9.6% 4955 09-17-16
198 Sithwarrior26 9.6% 4956 09-17-16
199 ingx24 9.1% 4982 09-17-16
200 CyberShadow 9.1% 4986 09-17-16
201 Fozer 8.7% 5005 09-17-16
202 Colomb_30 8.6% 5013 09-17-16
203 Egor305 8.5% 5018 09-17-16
204 dekki1234 8.5% 5019 09-17-16
205 Regano1000 8.3% 5026 09-17-16
206 1stKirbyever 8.1% 5039 09-17-16
207 TimTH 7.9% 5048 09-17-16
208 nuckrieg 7.8% 5053 09-17-16
209 Brian_pso 7.7% 5059 09-17-16
210 douglas 7.7% 5063 09-17-16
211 Zip 7.5% 5074 09-17-16
212 TakaRikka 7.4% 5077 09-17-16
213 Th4tN1nj4Turtl3 7.4% 5078 09-17-16
214 wheatrich 7.1% 5095 09-17-16
215 Mariosonic15 7.0% 5097 09-17-16
216 niscool 6.7% 5116 09-17-16
217 ieatatsonic 6.7% 5117 09-17-16
218 HermitHelmet 6.7% 5118 09-17-16
218 MStitomix 6.7% 5118 09-17-16
220 Got4n 6.4% 5134 09-17-16
221 Cort_pso 6.3% 5138 09-17-16
221 Triseena 6.3% 5138 09-17-16
223 Jose_15 6.0% 5152 09-17-16
224 Artie 5.9% 5158 09-17-16
225 BlankTH 5.9% 5161 09-17-16
226 SuperSonicfan9595 5.8% 5163 09-17-16
227 Ace747 5.5% 5179 09-17-16
228 Richied 5.5% 5183 09-17-16
229 HHNNBBHHN 5.5% 5184 09-17-16
230 Paixii 5.2% 5196 09-17-16
231 Aiko 5.2% 5199 09-17-16
232 slade23 5.0% 5210 09-17-16
233 BallzeH 5.0% 5211 09-17-16
234 ArcticDragon 4.9% 5216 09-17-16
234 FSSRandomvids 4.9% 5216 09-17-16
236 Mankster101 4.9% 5217 09-17-16
237 BecauseWarAnvil 4.8% 5219 09-17-16
238 PsyBorg 4.8% 5220 09-17-16
239 Jamixesa 4.8% 5222 09-17-16
240 Nickson98 4.7% 5226 09-17-16
241 Crydio 4.6% 5231 09-17-16
242 TheUltraBlur 4.4% 5240 09-17-16
243 ReuelBrony 4.4% 5244 09-17-16
244 MarewBFN 4.2% 5251 09-17-16
245 stanski 4.2% 5252 09-17-16
246 tal39h 4.2% 5254 09-17-16
247 ALundstrom10 4.0% 5265 09-17-16
247 p0ker 4.0% 5265 09-17-16
249 knuckles_sonic8 3.9% 5267 09-17-16
250 Blue Infamy 3.9% 5269 09-17-16
251 ErrortheCucco 3.7% 5280 09-17-16
252 Rikum22 3.7% 5283 09-17-16
253 sonic1001 3.5% 5291 09-17-16
253 TheChaosEmeraIds 3.5% 5291 09-17-16
255 AJSIV 3.4% 5296 09-17-16
256 syco1098 3.4% 5298 09-17-16
257 Sonic the Hedgehod16 3.3% 5301 09-17-16
258 Calfd 3.2% 5308 09-17-16
259 sonicfan9 3.2% 5309 09-17-16
260 themachoman202 2.9% 5322 09-17-16
261 MK 2.9% 5323 09-17-16
262 Fivavoa 2.8% 5332 09-17-16
262 Mr. Jones 2.8% 5332 09-17-16
264 BlackArmsShadow 2.7% 5333 09-17-16
265 djmat 2.7% 5334 09-17-16
266 arcfx1985 2.7% 5335 09-17-16
267 ptorflaxendrosis 2.7% 5337 09-17-16
268 Sonique Hedgehog 2.6% 5338 09-17-16
269 FlandreScarlet9999vr 2.6% 5342 09-17-16
270 Zeldocto 2.5% 5345 09-17-16
271 BeeAwwb 2.4% 5349 09-17-16
272 KaM Mark MaK 2.4% 5350 09-17-16
273 ShadouZaHejjihoggu 2.3% 5357 09-17-16
274 darkstarblaze 2.2% 5362 09-17-16
275 Sonic The Star 2.2% 5364 09-17-16
276 darkersupershadic 2.2% 5365 09-17-16
277 SpiritDragon1995 2.1% 5366 09-17-16
278 Sarger001 2.1% 5368 09-17-16
279 Grady219 2.0% 5371 09-17-16
279 sonic29887 2.0% 5371 09-17-16
281 shadowblast63 Player Banned 2.0% 5376 09-17-16
282 Jawaah 1.9% 5377 09-17-16
283 Antek 1.9% 5381 09-17-16
284 Klaus 1.8% 5383 09-17-16
285 BioShadow 1.8% 5386 09-17-16
286 SkyBon 1.4% 5404 09-17-16
287 Shanekilz 1.4% 5405 09-17-16
288 isaihtb11 1.4% 5408 09-17-16
289 OhNoes! 1.3% 5410 09-17-16
290 zaktu40 1.3% 5411 09-17-16
291 gaara1234 1.3% 5414 09-17-16
292 S-MS32X-S 1.2% 5416 09-17-16
293 MastaToken 1.1% 5421 09-17-16
294 Mister_Slick 1.1% 5425 09-17-16
295 Sonic06Fan 1.0% 5428 09-17-16
296 Rush Hero 1.0% 5430 09-17-16
297 SonicMega167 0.9% 5435 09-17-16
298 oTaiIilLsS 0.8% 5437 09-17-16
298 SilverK 0.8% 5437 09-17-16
300 gamed00d 0.8% 5438 09-17-16
301 Burningskull123 0.5% 5454 09-17-16
302 Heroes_Hater 0.5% 5456 09-17-16
303 Sonicontherun 0.3% 5465 09-17-16
304 antiwwe 0.2% 5471 09-17-16
305 Iwannabelink 0.2% 5473 09-17-16
306 Genuine Hedgehog 0.2% 5475 09-17-16
307 dragondragon18 0.1% 5479 09-17-16
308 SonicK100 0.1% 5480 09-17-16
309 Tyrouble 0.0% 5485 09-17-16
310 LancexExWx 0.0% 5486 09-17-16
310 neji_hyuuga 0.0% 5486 09-17-16
310 Over 0.0% 5486 09-17-16
310 sdj6707 Player Banned 0.0% 5486 09-17-16
310 Tran Sonic Fan Player Banned 0.0% 5486 09-17-16

This page is using the New Data Table System. [FUTURE]

Game ID: 3 | Category ID: 1
Hits: 8,291 | Hits This Month: 36 | DB Calls: 24 | Mem Usage: 5.46 MB | Time: 0.26s | Printable

The Sonic Center v3.9
Copyright 2003-2011 by The Sonic Center Team.